Latest Weather Observations for Point Cook

IDV60801

Issued at 6:12 am EDT Monday 3 October 2022 (issued every 10 minutes, with the page automatically refreshed every 10 minutes)

About weather observations | Map of weather stations | Latest weather observations for VIC | Other Formats
Station Details ID: 087185 Name: POINT COOK RAAF Lat: -37.93 Lon: 144.76 Height: 3.13 m
Data from the previous 72 hours. | See also: Recent months for locations in Victoria
Date/Time
EDT
Temp
°C
App
Temp
°C
Dew
Point
°C
Rel
Hum
%
Delta-T
°C
Wind Press
QNH
hPa
Press
MSL
hPa
Rain since
9am
mm
Dir  Spd
km/h
Gust
km/h
Spd
kts
Gust
kts
03/06:00am 6.5 4.8 5.8 95 0.3 NNW 4 6 2 3 1020.4 1020.4 0.0
03/05:30am 5.7 3.8 5.0 95 0.3 NW 4 4 2 2 1020.4 1020.4 0.0
03/05:00am 6.0 4.2 5.3 95 0.3 NW 4 6 2 3 1020.6 1020.6 0.0
03/04:30am 5.6 3.3 4.9 95 0.3 NW 6 7 3 4 1020.6 1020.6 0.0
03/04:00am 6.1 3.3 5.2 94 0.4 WNW 9 11 5 6 1020.8 1020.8 0.0
03/03:30am 6.4 4.0 5.4 93 0.4 NW 7 11 4 6 1020.9 1020.9 0.0
03/03:00am 7.2 5.6 6.5 95 0.3 NW 4 4 2 2 1020.8 1020.8 0.0
03/02:30am 6.5 4.3 5.3 92 0.5 NW 6 7 3 4 1021.1 1021.1 0.0
03/02:00am 6.9 4.6 5.7 92 0.5 WNW 7 7 4 4 1021.1 1021.1 0.0
03/01:30am 7.3 5.1 6.1 92 0.5 WNW 7 7 4 4 1021.1 1021.1 0.0
03/01:00am 7.3 5.1 6.1 92 0.5 WNW 7 9 4 5 1021.2 1021.2 0.0
03/12:30am 7.7 5.7 6.3 91 0.6 WNW 6 6 3 3 1021.2 1021.2 0.0
03/12:00am 8.3 6.3 6.9 91 0.6 WNW 7 7 4 4 1021.3 1021.3 0.0
 
Date/Time
EDT
Temp
°C
App
Temp
°C
Dew
Point
°C
Rel
Hum
%
Delta-T
°C
Wind Press
QNH
hPa
Press
MSL
hPa
Rain since
9am
mm
Dir  Spd
km/h
Gust
km/h
Spd
kts
Gust
kts
02/11:30pm 7.8 5.6 6.4 91 0.6 WNW 7 7 4 4 1021.2 1021.2 0.0
02/11:00pm 8.8 7.0 7.1 89 0.8 W 6 7 3 4 1021.3 1021.3 0.0
02/10:30pm 9.2 7.2 7.2 87 0.9 W 7 7 4 4 1021.3 1021.3 0.0
02/10:00pm 10.2 8.3 7.6 84 1.2 WSW 7 7 4 4 1021.0 1021.0 0.0
02/09:30pm 10.4 8.5 7.6 83 1.3 WSW 7 9 4 5 1020.8 1020.8 0.0
02/09:00pm 11.4 8.5 8.3 81 1.5 SSW 13 15 7 8 1020.3 1020.3 0.0
02/08:30pm 11.7 9.5 8.0 78 1.8 SSW 9 13 5 7 1020.1 1020.1 0.0
02/08:00pm 12.4 9.9 8.3 76 2.0 SSW 11 15 6 8 1019.8 1019.8 0.0
02/07:30pm 12.4 9.6 8.7 78 1.8 SSW 13 17 7 9 1019.7 1019.7 0.0
02/07:00pm 13.2 10.7 8.3 72 2.4 SSE 11 17 6 9 1019.2 1019.2 0.0
02/06:30pm 14.1 11.9 9.3 73 2.4 S 11 13 6 7 1019.2 1019.2 0.0
02/06:00pm 14.5 11.4 8.7 68 2.9 SSE 15 19 8 10 1019.1 1019.1 0.0
02/05:30pm 14.8 11.8 9.4 70 2.8 SSE 15 19 8 10 1019.1 1019.1 0.0
02/05:00pm 14.9 11.4 8.6 66 3.2 SSE 17 20 9 11 1019.1 1019.1 0.0
02/04:30pm 15.3 12.2 9.0 66 3.2 SSE 15 19 8 10 1019.2 1019.2 0.0
02/04:00pm 15.0 11.9 8.9 67 3.1 SE 15 19 8 10 1019.3 1019.3 0.0
02/03:30pm 14.9 12.1 8.6 66 3.2 SE 13 19 7 10 1019.5 1019.5 0.0
02/03:00pm 15.1 12.3 9.9 71 2.7 SSE 15 20 8 11 1019.8 1019.8 0.0
02/02:30pm 14.6 11.8 10.0 74 2.4 SE 15 19 8 10 1019.9 1019.9 0.0
02/02:00pm 14.8 12.4 10.0 73 2.5 SSE 13 17 7 9 1020.0 1020.0 0.0
02/01:30pm 14.6 12.1 9.6 72 2.6 SSE 13 17 7 9 1020.3 1020.3 0.0
02/01:00pm 13.3 10.9 9.9 80 1.7 SSE 13 20 7 11 1020.3 1020.3 0.0
02/12:30pm 13.5 11.7 10.7 83 1.5 S 11 15 6 8 1020.5 1020.5 0.0
02/12:00pm 13.2 11.5 11.1 87 1.1 S 11 13 6 7 1020.4 1020.4 0.0
02/11:30am 12.8 11.3 10.5 86 1.2 S 9 11 5 6 1020.7 1020.7 0.0
02/11:00am 12.4 11.5 10.5 88 1.0 S 6 9 3 5 1020.7 1020.7 0.0
02/10:30am 11.2 9.4 9.6 90 0.8 SSW 9 11 5 6 1021.0 1021.0 0.0
02/10:00am 10.6 9.0 8.7 88 0.9 SSW 7 11 4 6 1021.0 1021.0 0.0
02/09:30am 10.0 8.5 8.4 90 0.8 W 6 7 3 4 1021.1 1021.1 0.0
02/09:00am 8.2 6.2 7.3 94 0.4 WSW 7 9 4 5 1021.0 1021.0 0.0
02/08:57am 8.1 6.3 7.3 95 0.4 WSW 6 9 3 5 1021.0 1021.0 0.0
02/08:53am 7.8 6.0 7.1 95 0.3 WSW 6 7 3 4 1021.0 1021.0 0.0
02/08:30am 6.8 4.6 6.2 96 0.3 WSW 7 9 4 5 1021.1 1021.1 0.0
02/08:28am 6.9 4.7 6.3 96 0.3 WSW 7 9 4 5 1021.1 1021.1 0.0
02/08:11am 6.8 4.6 6.2 96 0.3 W 7 9 4 5 1020.8 1020.8 0.0
02/08:00am 6.4 4.1 5.8 96 0.3 W 7 9 4 5 1020.8 1020.8 0.0
02/07:32am 5.6 3.8 5.2 97 0.2 WNW 4 6 2 3 1020.4 1020.4 0.0
02/07:30am 5.6 4.1 5.2 97 0.2 WNW 2 6 1 3 1020.4 1020.4 0.0
02/07:07am 5.8 4.0 5.4 97 0.2 W 4 6 2 3 1020.1 1020.1 0.0
02/07:00am 5.9 4.1 5.5 97 0.2 WNW 4 6 2 3 1019.9 1019.9 0.0
02/06:30am 5.4 2.9 5.0 97 0.2 NW 7 7 4 4 1019.5 1019.5 0.0
02/06:00am 5.1 2.6 4.5 96 0.3 NW 7 7 4 4 1019.2 1019.2 0.0
02/05:30am 5.4 2.9 4.8 96 0.3 WNW 7 11 4 6 1018.9 1018.9 0.0
02/05:00am 5.9 3.7 5.3 96 0.3 NW 6 7 3 4 1018.6 1018.6 0.0
02/04:30am 6.3 4.2 5.7 96 0.3 NNW 6 7 3 4 1018.6 1018.6 0.0
02/04:00am 5.5 3.0 4.8 95 0.3 NW 7 7 4 4 1018.7 1018.7 0.0
02/03:30am 5.8 3.0 5.1 95 0.3 WNW 9 11 5 6 1019.0 1019.0 0.0
02/03:00am 6.5 3.5 5.8 95 0.3 WNW 11 13 6 7 1019.4 1019.4 0.0
02/01:30am 6.7 4.0 5.8 94 0.4 WNW 9 11 5 6 1019.6 1019.6 0.0
02/01:00am 7.1 4.1 5.9 92 0.5 NW 11 11 6 6 1019.9 1019.9 0.0
02/12:30am 8.5 6.8 5.8 83 1.2 ENE 4 7 2 4 1020.0 1020.0 0.0
02/12:00am 10.9 9.2 8.5 85 1.2 E 7 9 4 5 1020.2 1020.2 0.0
 
Date/Time
EDT
Temp
°C
App
Temp
°C
Dew
Point
°C
Rel
Hum
%
Delta-T
°C
Wind Press
QNH
hPa
Press
MSL
hPa
Rain since
9am
mm
Dir  Spd
km/h
Gust
km/h
Spd
kts
Gust
kts
01/11:30pm 11.4 8.9 8.4 82 1.5 E 11 13 6 7 1020.5 1020.5 0.0
01/11:00pm 11.6 8.5 8.8 83 1.4 ESE 15 19 8 10 1020.5 1020.5 0.0
01/10:30pm 11.9 8.4 8.7 81 1.6 ESE 17 20 9 11 1020.7 1020.7 0.0
01/10:00pm 12.2 8.7 8.7 79 1.7 ESE 17 20 9 11 1021.0 1021.0 0.0
01/09:30pm 12.7 8.6 8.6 76 2.0 SE 20 24 11 13 1021.2 1021.2 0.0
01/09:00pm 13.3 8.9 8.8 74 2.3 ESE 22 30 12 16 1021.0 1021.0 0.0
01/08:30pm 13.0 10.0 10.5 85 1.3 SE 17 22 9 12 1021.2 1021.2 0.0
01/08:00pm 13.3 9.7 10.7 84 1.4 SE 20 26 11 14 1021.1 1021.1 0.0
01/07:30pm 13.5 10.2 10.9 84 1.4 SSE 19 24 10 13 1021.0 1021.0 0.0
01/07:00pm 13.2 9.9 10.9 86 1.2 S 19 22 10 12 1021.0 1021.0 0.0
01/06:30pm 13.7 10.2 10.9 83 1.5 S 20 24 11 13 1020.8 1020.8 0.0
01/06:00pm 14.2 10.3 10.8 80 1.8 SSW 22 26 12 14 1020.8 1020.8 0.0
01/05:30pm 14.9 10.5 10.5 75 2.3 SSW 24 28 13 15 1020.7 1020.7 0.0
01/05:00pm 15.3 11.3 10.5 73 2.5 SSW 22 26 12 14 1020.5 1020.5 0.0
01/04:30pm 15.4 11.7 9.5 68 3.0 SSW 19 22 10 12 1020.6 1020.6 0.0
01/04:00pm 15.8 12.7 9.0 64 3.5 S 15 19 8 10 1020.7 1020.7 0.0
01/03:30pm 15.8 13.1 9.0 64 3.5 S 13 17 7 9 1020.9 1020.9 0.0
01/03:00pm 15.4 12.6 8.6 64 3.4 S 13 17 7 9 1021.2 1021.2 0.0
01/02:30pm 15.2 12.2 9.3 68 3.0 S 15 17 8 9 1021.7 1021.7 0.0
01/02:00pm 15.5 13.0 8.0 61 3.7 SSE 11 15 6 8 1022.0 1022.0 0.0
01/01:30pm 15.0 12.2 6.8 58 4.0 SSE 11 15 6 8 1022.4 1022.4 0.0
01/01:00pm 15.0 12.5 8.0 63 3.5 SE 11 15 6 8 1023.0 1023.0 0.0
01/12:30pm 14.3 11.8 8.3 67 3.0 SE 11 17 6 9 1023.5 1023.5 0.0
01/12:00pm 14.2 11.4 8.6 69 2.8 SE 13 17 7 9 1024.0 1024.0 0.0
01/11:30am 13.7 10.7 9.4 75 2.2 SE 15 19 8 10 1024.4 1024.4 0.0
01/11:00am 13.5 11.0 9.6 77 2.0 SE 13 17 7 9 1024.8 1024.8 0.0
01/10:30am 12.8 10.4 8.7 76 2.0 SE 11 13 6 7 1025.3 1025.3 0.0
01/10:00am 12.7 10.8 9.0 78 1.8 SE 9 13 5 7 1025.3 1025.3 0.0
01/09:30am 12.7 11.2 8.6 76 2.0 ESE 6 9 3 5 1025.4 1025.4 0.0
01/09:00am 12.0 10.3 7.7 75 2.1 NE 6 9 3 5 1025.7 1025.7 0.0
01/08:30am 11.6 9.5 8.3 80 1.6 E 9 15 5 8 1025.9 1025.9 0.0
01/08:00am 11.2 8.7 8.4 83 1.4 E 11 17 6 9 1025.9 1025.9 0.0
01/07:30am 10.6 7.6 7.8 83 1.4 E 13 19 7 10 1025.9 1025.9 0.0
01/07:00am 10.2 7.2 7.6 84 1.2 ESE 13 17 7 9 1025.8 1025.8 0.0
01/06:30am 9.6 6.9 7.5 87 1.0 E 11 15 6 8 1025.5 1025.5 0.0
01/06:00am 9.0 5.9 7.3 89 0.8 ESE 13 17 7 9 1025.2 1025.2 0.0
01/05:30am 9.1 6.4 7.4 89 0.8 E 11 15 6 8 1025.0 1025.0 0.0
01/05:00am 8.9 6.2 7.4 90 0.7 E 11 13 6 7 1024.8 1024.8 0.0
01/04:30am 10.0 5.9 7.9 87 1.0 E 19 30 10 16 1024.9 1024.9 0.0
01/04:00am 10.4 5.4 8.0 85 1.2 ESE 24 32 13 17 1024.9 1024.9 0.0
01/03:30am 10.6 5.2 8.2 85 1.2 ESE 26 35 14 19 1025.2 1025.2 0.0
01/03:00am 10.8 5.1 8.2 84 1.3 ESE 28 41 15 22 1025.3 1025.3 0.0
01/02:30am 11.1 5.1 8.5 84 1.3 ESE 30 39 16 21 1025.5 1025.5 0.0
01/02:00am 11.4 5.4 8.6 83 1.4 ESE 30 39 16 21 1025.8 1025.8 0.0
01/01:30am 11.4 5.4 8.6 83 1.4 ESE 30 39 16 21 1026.1 1026.1 0.0
01/01:00am 11.3 5.7 8.7 84 1.3 ESE 28 35 15 19 1026.3 1026.3 0.0
01/12:30am 11.2 5.6 8.8 85 1.2 ESE 28 35 15 19 1026.5 1026.5 0.0
01/12:00am 11.5 5.9 8.9 84 1.3 ESE 28 37 15 20 1026.3 1026.3 0.0
 
Date/Time
EDT
Temp
°C
App
Temp
°C
Dew
Point
°C
Rel
Hum
%
Delta-T
°C
Wind Press
QNH
hPa
Press
MSL
hPa
Rain since
9am
mm
Dir  Spd
km/h
Gust
km/h
Spd
kts
Gust
kts
30/11:30pm 11.7 5.4 8.9 83 1.4 ESE 32 39 17 21 1026.5 1026.5 0.0
30/11:00pm 11.9 5.6 9.1 83 1.4 ESE 32 43 17 23 1026.5 1026.5 0.0
30/10:30pm 12.1 4.8 8.9 81 1.6 ESE 37 48 20 26 1026.6 1026.6 0.0
30/10:00pm 12.3 4.3 9.0 80 1.6 ESE 41 54 22 29 1026.8 1026.8 0.0
30/09:30pm 12.5 4.1 9.0 79 1.8 ESE 43 57 23 31 1026.9 1026.9 0.0
30/09:00pm 12.8 4.8 8.9 77 1.9 ESE 41 54 22 29 1026.8 1026.8 0.0
30/08:30pm 13.0 5.8 9.1 77 2.0 ESE 37 50 20 27 1026.7 1026.7 0.0
30/08:00pm 13.5 6.3 9.2 75 2.2 ESE 37 50 20 27 1026.3 1026.3 0.0
30/07:30pm 13.8 6.9 9.0 73 2.4 ESE 35 44 19 24 1026.3 1026.3 0.0
30/07:00pm 14.1 7.9 9.5 74 2.3 ESE 32 41 17 22 1026.1 1026.1 0.0
30/06:30pm 14.4 8.0 9.4 72 2.6 ESE 33 43 18 23 1026.0 1026.0 0.0
30/06:00pm 14.9 8.8 9.7 71 2.7 SE 32 43 17 23 1026.1 1026.1 0.0
30/05:30pm 15.6 9.5 9.9 69 3.0 ESE 32 43 17 23 1025.9 1025.9 0.0
30/05:00pm 16.1 11.0 10.6 70 2.9 SE 28 37 15 20 1025.9 1025.9 0.0
30/04:30pm 16.6 9.5 9.5 63 3.7 ESE 37 46 20 25 1025.8 1025.8 0.0
30/04:00pm 16.8 11.6 10.4 66 3.4 SE 28 37 15 20 1025.9 1025.9 0.0
30/03:30pm 17.1 11.1 10.2 64 3.7 SE 32 39 17 21 1026.1 1026.1 0.0
30/03:00pm 17.3 11.8 10.7 65 3.5 SE 30 39 16 21 1026.4 1026.4 0.0
30/02:30pm 17.6 12.2 10.9 65 3.6 SE 30 37 16 20 1026.6 1026.6 0.0
30/02:00pm 17.3 11.8 10.7 65 3.5 SE 30 37 16 20 1026.9 1026.9 0.0
30/01:30pm 17.3 12.5 11.6 69 3.1 SE 28 39 15 21 1027.2 1027.2 0.0
30/01:00pm 17.4 12.8 11.0 66 3.4 ESE 26 37 14 20 1027.3 1027.3 0.0
30/12:30pm 17.0 11.6 10.8 67 3.3 ESE 30 37 16 20 1027.6 1027.6 0.0
30/12:00pm 16.5 11.5 11.0 70 2.9 ESE 28 35 15 19 1027.9 1027.9 0.0
30/11:30am 16.1 10.2 10.4 69 3.0 ESE 32 41 17 22 1028.4 1028.4 0.0
30/11:00am 16.1 10.9 11.7 75 2.4 SE 30 39 16 21 1028.8 1028.8 0.0
30/10:30am 15.4 9.6 10.8 74 2.4 ESE 32 39 17 21 1029.0 1029.0 0.0
30/10:00am 15.1 9.0 10.5 74 2.4 ESE 33 43 18 23 1029.2 1029.2 0.0
30/09:30am 14.4 8.2 10.2 76 2.2 ESE 33 41 18 22 1029.2 1029.2 0.0
30/09:00am 13.7 7.1 10.1 79 1.8 ESE 35 44 19 24 1029.1 1029.1 0.0
30/08:30am 13.5 7.0 10.3 81 1.7 ESE 35 44 19 24 1028.9 1028.9 0.0
30/08:00am 13.1 6.9 9.9 81 1.6 ESE 33 48 18 26 1028.6 1028.6 0.0
30/07:30am 12.7 6.3 9.5 81 1.6 ESE 33 43 18 23 1028.4 1028.4 0.0
30/07:19am 12.6 5.9 9.6 82 1.5 ESE 35 44 19 24 1028.3 1028.3 0.0
30/07:00am 12.3 6.2 9.9 85 1.2 ESE 32 41 17 22 1028.2 1028.2 0.0
30/06:30am 12.1 5.8 9.8 86 1.2 ESE 33 43 18 23 1027.8 1027.8 0.0
30/06:00am 12.0 5.3 9.6 85 1.2 ESE 35 48 19 26 1027.5 1027.5 0.0
30/05:30am 12.1 5.4 9.5 84 1.3 ESE 35 43 19 23 1027.2 1027.2 0.0

Other formats

Comma delimited format used in spreadsheet applications
http://www.bom.gov.au/fwo/IDV60801/IDV60801.95941.axf

JavaScript Object Notation format (JSON) in row-major order
http://www.bom.gov.au/fwo/IDV60801/IDV60801.95941.json

Data quality

Most of these data are generated automatically and are frequently updated. Quality checks on data are not normally performed. It is possible for incorrect values to appear. Refer to information at About Latest Weather Observations and please check the disclaimer before using these data.